Flight Track Log - Related Links

Times and Time Zones

All times are in EDT time to prevent confusion due to time zone crossing. See the N25CX flight status page for this flight to view local times or setup timezone preferences in your user account.

Time Position Orientation Groundspeed Altitude Reporting Facility
EDT Latitude Longitude Course Direction KTS MPH feet Rate Location/Type
Sat 01:23:00 PM 34.8522 -79.0687 358° North  Level FlightAware Approximate
Sat 01:24:00 PM 34.9031 -79.0706 358° North  Level FlightAware Approximate
Sat 01:25:00 PM 34.9541 -79.0726 358° North  Level FlightAware Approximate
Sat 01:26:00 PM 35.0051 -79.0745 358° North  Level FlightAware Approximate
Sat 01:27:00 PM 35.0560 -79.0765 358° North  Level FlightAware Approximate
Sat 01:28:00 PM 35.1070 -79.0785 358° North  Level FlightAware Approximate
Sat 01:29:00 PM 35.1579 -79.0804 358° North  Level FlightAware Approximate
Sat 01:30:00 PM 35.2089 -79.0824 358° North  Level FlightAware Approximate
Sat 01:31:00 PM 35.2598 -79.0833 North  Level FlightAware Approximate
Sat 01:32:00 PM 35.3108 -79.0833 360° North  Level FlightAware Approximate
Sat 01:32:38 PM 35.3289 -79.0086 345° North 179 206 4,100  Level Washington Center
Sat 01:33:00 PM 35.3618 -79.0833 360° North  Level FlightAware Approximate
Sat 01:34:00 PM 35.4128 -79.0833 360° North  Level FlightAware Approximate
Sat 01:34:00 PM 35.3952 -79.0350 342° North  Level FlightAware Approximate
Sat 01:35:00 PM 35.4638 -79.0833 360° North  Level FlightAware Approximate
Sat 01:36:00 PM 35.5148 -79.0833 360° North  Level FlightAware Approximate
Sat 01:37:00 PM 35.5640 -79.0991 345° North  Level FlightAware Approximate
Sat 01:38:00 PM 35.5667 -79.1000 345° North  Level FlightAware Approximate
Sat 01:41:00 PM 35.5667 -79.1000 345° North  Level FlightAware Approximate
Sat 01:42:00 PM 35.5824 -79.1013 345° North  Level Estimated
Sat 01:43:00 PM 35.5824 -79.1013 345° North  Level Estimated

Login

Don't have an account? Register now (free) for customized features, flight alerts, and more!